Time;durP1;ratioP1;P1;durP2;ratioP2;P2;SDS_P1;SDS_P2;PMS_P1;PMS_P2;Temp;Humidity;BMP_temperature;BMP_pressure;BME280_temperature;BME280_humidity;BME280_pressure;Samples;Min_cycle;Max_cycle;Signal;HPM_P1;HPM_P2
2022/01/03 00:02:24;;;;;;;7.90;1.87;;;12.70;78.30;;;;;;5021662;28;20476;-73
2022/01/03 00:04:53;;;;;;;6.50;1.70;;;12.80;78.20;;;;;;5016711;28;20479;-73
2022/01/03 00:07:23;;;;;;;7.17;1.80;;;12.70;78.30;;;;;;5020468;28;20459;-72
2022/01/03 00:09:52;;;;;;;9.70;2.60;;;12.70;78.30;;;;;;5015177;28;20478;-72
2022/01/03 00:12:20;;;;;;;6.30;2.00;;;12.70;78.00;;;;;;5018708;28;20471;-73
2022/01/03 00:14:49;;;;;;;5.90;1.50;;;12.70;78.40;;;;;;5019720;28;20459;-73
2022/01/03 00:17:17;;;;;;;8.60;1.90;;;12.70;78.40;;;;;;5017454;28;21019;-72
2022/01/03 00:19:45;;;;;;;6.83;2.30;;;12.80;78.20;;;;;;5014316;28;20477;-72
2022/01/03 00:22:19;;;;;;;8.90;2.87;;;12.80;78.10;;;;;;5018172;28;20474;-72
2022/01/03 00:24:58;;;;;;;6.70;1.77;;;12.80;78.10;;;;;;5031359;28;20513;-73
2022/01/03 00:27:33;;;;;;;6.27;2.00;;;12.80;78.00;;;;;;5032277;28;20459;-72
2022/01/03 00:30:01;;;;;;;5.77;1.60;;;12.70;78.20;;;;;;5017646;28;20500;-75
2022/01/03 00:32:29;;;;;;;6.67;1.63;;;12.70;78.30;;;;;;5016059;28;21219;-73
2022/01/03 00:34:58;;;;;;;5.83;1.60;;;12.70;78.30;;;;;;5021249;28;20474;-73
2022/01/03 00:37:28;;;;;;;7.37;2.33;;;12.70;78.40;;;;;;5020081;28;20476;-72
2022/01/03 00:39:59;;;;;;;6.83;1.83;;;12.80;78.40;;;;;;5035240;28;20487;-72
2022/01/03 00:42:27;;;;;;;6.23;2.40;;;12.70;78.40;;;;;;5017927;28;20540;-73
2022/01/03 00:44:55;;;;;;;9.87;2.30;;;12.70;78.70;;;;;;5017205;28;20468;-72
2022/01/03 00:47:23;;;;;;;10.50;2.30;;;12.60;78.70;;;;;;5024093;28;21195;-72
2022/01/03 00:49:53;;;;;;;8.57;1.80;;;12.60;79.00;;;;;;5036696;28;21032;-72
2022/01/03 00:52:20;;;;;;;6.67;1.87;;;12.60;79.10;;;;;;5023562;28;20463;-70
2022/01/03 00:54:48;;;;;;;8.70;1.70;;;12.60;79.00;;;;;;5024946;28;20849;-71
2022/01/03 00:57:24;;;;;;;6.53;1.37;;;12.40;79.20;;;;;;5023860;28;20898;-72
2022/01/03 01:00:02;;;;;;;5.43;1.33;;;12.30;79.50;;;;;;5032348;28;20486;-72
2022/01/03 01:02:35;;;;;;;4.43;0.90;;;12.10;79.60;;;;;;5017897;28;20459;-72
2022/01/03 01:05:04;;;;;;;3.53;0.90;;;12.00;79.70;;;;;;5017845;28;20467;-72
2022/01/03 01:07:34;;;;;;;3.33;0.70;;;11.90;79.90;;;;;;5024635;28;20447;-72
2022/01/03 01:10:06;;;;;;;4.10;0.97;;;11.70;80.30;;;;;;5015573;28;20577;-72
2022/01/03 01:12:37;;;;;;;3.53;1.00;;;11.70;80.40;;;;;;5016766;28;20469;-72
2022/01/03 01:15:06;;;;;;;5.03;1.20;;;11.60;80.50;;;;;;5015340;28;20460;-72
2022/01/03 01:17:35;;;;;;;4.10;1.00;;;11.50;80.90;;;;;;5023648;28;20456;-74
2022/01/03 01:20:05;;;;;;;4.17;0.80;;;11.50;81.00;;;;;;5034442;28;20514;-72
2022/01/03 01:22:34;;;;;;;3.00;0.60;;;11.50;80.80;;;;;;5017923;28;20501;-72
2022/01/03 01:25:26;;;;;;;4.47;0.83;;;11.40;80.60;;;;;;5018063;28;20580;-72
2022/01/03 01:27:56;;;;;;;3.83;1.00;;;11.50;80.60;;;;;;5019446;28;20842;-72
2022/01/03 01:30:28;;;;;;;3.17;0.70;;;11.30;80.60;;;;;;5021156;28;20521;-72
2022/01/03 01:33:02;;;;;;;3.70;0.90;;;11.30;80.70;;;;;;5016584;28;20469;-72
2022/01/03 01:35:37;;;;;;;2.57;0.80;;;11.30;80.70;;;;;;5025004;28;20468;-72
2022/01/03 01:38:08;;;;;;;4.63;0.80;;;11.20;80.70;;;;;;5034794;28;20509;-72
2022/01/03 01:40:44;;;;;;;3.20;0.50;;;11.30;80.70;;;;;;5019758;28;20891;-73
2022/01/03 01:43:18;;;;;;;6.50;0.77;;;11.20;80.50;;;;;;5037961;28;20891;-72
2022/01/03 01:45:49;;;;;;;2.80;0.93;;;11.20;80.60;;;;;;5017369;28;20489;-72
2022/01/03 01:48:18;;;;;;;3.83;0.90;;;11.10;80.40;;;;;;5018685;28;20573;-72
2022/01/03 01:50:51;;;;;;;2.47;0.60;;;11.00;80.40;;;;;;5015677;28;20499;-72
2022/01/03 01:53:23;;;;;;;4.83;0.97;;;10.90;80.60;;;;;;5031012;28;20472;-73
2022/01/03 01:55:56;;;;;;;3.70;0.90;;;10.90;80.60;;;;;;5031286;28;20540;-72
2022/01/03 01:58:35;;;;;;;5.43;0.80;;;10.80;80.70;;;;;;5023372;28;21085;-72
2022/01/03 02:01:09;;;;;;;4.13;0.97;;;10.80;80.80;;;;;;5021252;28;20475;-72
2022/01/03 02:03:53;;;;;;;3.93;0.90;;;10.80;80.90;;;;;;5020103;28;20515;-72
2022/01/03 02:06:30;;;;;;;6.70;1.17;;;10.70;81.00;;;;;;5033515;28;21033;-72
2022/01/03 02:09:06;;;;;;;4.60;1.10;;;10.70;81.10;;;;;;5032717;28;20480;-72
2022/01/03 02:11:48;;;;;;;3.80;1.00;;;10.70;81.10;;;;;;5015087;28;20569;-73
2022/01/03 02:14:20;;;;;;;4.60;0.90;;;10.70;81.30;;;;;;5016827;28;20456;-72
2022/01/03 02:16:51;;;;;;;3.80;1.00;;;10.70;81.40;;;;;;5014444;28;20615;-72
2022/01/03 02:19:20;;;;;;;5.20;1.20;;;10.70;81.40;;;;;;5021344;28;20509;-72
2022/01/03 02:21:50;;;;;;;6.70;0.80;;;10.70;81.50;;;;;;5021385;28;21223;-72
2022/01/03 02:24:24;;;;;;;3.63;0.90;;;10.80;81.50;;;;;;5019069;28;20463;-71
2022/01/03 02:26:52;;;;;;;4.17;1.00;;;10.80;81.50;;;;;;5033028;28;20473;-72
2022/01/03 02:29:20;;;;;;;5.50;1.17;;;10.80;81.70;;;;;;5018987;28;20835;-71
2022/01/03 02:31:49;;;;;;;3.57;1.00;;;10.80;81.60;;;;;;5022285;28;20527;-71
2022/01/03 02:34:17;;;;;;;2.93;1.00;;;10.80;81.70;;;;;;5021401;28;20498;-72
2022/01/03 02:36:46;;;;;;;4.07;1.00;;;10.80;81.80;;;;;;5033214;28;20496;-71
2022/01/03 02:39:16;;;;;;;3.47;0.80;;;10.80;81.80;;;;;;5030894;28;20476;-72
2022/01/03 02:41:44;;;;;;;4.63;1.20;;;10.80;81.80;;;;;;5011844;28;20463;-72
2022/01/03 02:44:12;;;;;;;6.20;1.50;;;10.90;81.90;;;;;;5034137;28;20464;-72
2022/01/03 02:46:40;;;;;;;7.13;1.50;;;10.90;81.90;;;;;;5020995;28;20480;-72
2022/01/03 02:49:09;;;;;;;4.63;1.13;;;10.80;82.00;;;;;;5017160;28;20529;-72
2022/01/03 02:51:38;;;;;;;5.40;1.57;;;10.80;82.00;;;;;;5027281;28;20474;-73
2022/01/03 02:54:06;;;;;;;7.27;0.93;;;10.80;82.00;;;;;;5016150;28;20466;-72
2022/01/03 02:56:36;;;;;;;7.10;1.43;;;10.80;82.00;;;;;;5010542;28;21246;-72
2022/01/03 02:59:12;;;;;;;6.60;1.40;;;10.80;82.00;;;;;;5031551;28;20480;-72
2022/01/03 03:01:42;;;;;;;5.17;1.37;;;10.80;81.90;;;;;;5030770;28;20477;-73
2022/01/03 03:04:11;;;;;;;6.20;1.57;;;10.70;82.00;;;;;;5028285;28;21226;-72
2022/01/03 03:06:39;;;;;;;4.90;1.00;;;10.70;82.00;;;;;;5011562;28;21253;-72
2022/01/03 03:09:08;;;;;;;5.70;1.20;;;10.70;82.10;;;;;;5017556;28;20515;-73
2022/01/03 03:11:38;;;;;;;5.87;1.50;;;10.70;82.10;;;;;;5016920;28;20460;-72
2022/01/03 03:14:08;;;;;;;10.03;1.40;;;10.70;82.10;;;;;;5019158;28;21212;-72
2022/01/03 03:16:36;;;;;;;7.77;1.50;;;10.60;82.00;;;;;;5021400;28;20834;-72
2022/01/03 03:19:04;;;;;;;5.23;1.30;;;10.60;82.00;;;;;;5020846;28;20488;-72
2022/01/03 03:21:32;;;;;;;6.13;1.43;;;10.60;82.00;;;;;;5019487;28;20857;-72
2022/01/03 03:24:00;;;;;;;7.87;1.60;;;10.60;82.10;;;;;;5016452;28;20459;-72
2022/01/03 03:26:28;;;;;;;5.77;1.20;;;10.70;82.10;;;;;;5022141;28;20475;-73
2022/01/03 03:28:58;;;;;;;7.90;1.40;;;10.60;82.10;;;;;;5019116;28;20944;-72
2022/01/03 03:31:26;;;;;;;3.60;1.20;;;10.60;82.10;;;;;;5019641;28;20823;-72
2022/01/03 03:33:54;;;;;;;6.40;1.57;;;10.60;82.10;;;;;;5019750;28;20872;-73
2022/01/03 03:36:22;;;;;;;4.60;1.10;;;10.60;82.10;;;;;;5018703;28;20448;-73
2022/01/03 03:38:50;;;;;;;4.67;1.10;;;10.60;82.10;;;;;;5015904;28;20863;-73
2022/01/03 03:41:19;;;;;;;5.53;1.40;;;10.60;82.00;;;;;;5016882;28;20502;-73
2022/01/03 03:43:54;;;;;;;7.23;1.30;;;10.60;82.10;;;;;;5020759;28;20498;-73
2022/01/03 03:46:24;;;;;;;6.57;1.60;;;10.60;82.20;;;;;;5022224;28;20472;-73
2022/01/03 03:48:53;;;;;;;5.13;1.47;;;10.60;82.10;;;;;;5024340;28;20534;-73
2022/01/03 03:51:23;;;;;;;4.40;1.20;;;10.60;82.20;;;;;;5024848;28;20464;-73
2022/01/03 03:53:54;;;;;;;4.63;1.27;;;10.60;82.30;;;;;;5015328;28;20555;-73
2022/01/03 03:56:25;;;;;;;3.77;1.17;;;10.50;82.30;;;;;;5016674;28;20549;-74
2022/01/03 03:58:53;;;;;;;9.60;1.53;;;10.60;82.40;;;;;;5035305;28;20500;-72
2022/01/03 04:01:23;;;;;;;6.40;1.43;;;10.50;82.40;;;;;;5014110;28;20483;-72
2022/01/03 04:03:55;;;;;;;6.30;1.50;;;10.50;82.50;;;;;;5016369;28;20472;-72
2022/01/03 04:06:24;;;;;;;6.33;1.50;;;10.50;82.50;;;;;;5021785;28;20551;-72
2022/01/03 04:08:56;;;;;;;5.63;1.37;;;10.50;82.80;;;;;;5020296;28;20552;-73
2022/01/03 04:11:24;;;;;;;6.63;1.43;;;10.60;82.50;;;;;;5020232;28;20844;-73
2022/01/03 04:13:53;;;;;;;6.33;1.57;;;10.60;82.50;;;;;;5025104;28;20463;-73
2022/01/03 04:16:21;;;;;;;8.50;1.57;;;10.60;82.40;;;;;;5023138;28;20511;-72
2022/01/03 04:18:51;;;;;;;6.70;1.40;;;10.60;82.40;;;;;;5024192;28;21040;-72
2022/01/03 04:21:20;;;;;;;6.23;1.30;;;10.60;82.50;;;;;;5026627;28;20460;-73
2022/01/03 04:23:48;;;;;;;5.80;1.30;;;10.60;82.40;;;;;;5022848;28;20872;-73
2022/01/03 04:26:16;;;;;;;7.93;1.30;;;10.60;82.40;;;;;;5022667;28;20985;-72
2022/01/03 04:28:44;;;;;;;4.07;1.10;;;10.70;82.40;;;;;;5023867;28;20505;-73
2022/01/03 04:31:13;;;;;;;5.23;1.63;;;10.70;82.50;;;;;;5025782;28;20474;-72
2022/01/03 04:33:42;;;;;;;3.93;1.00;;;10.70;82.50;;;;;;5025183;28;20497;-73
2022/01/03 04:36:12;;;;;;;7.57;1.70;;;10.70;82.40;;;;;;5024081;28;20849;-72
2022/01/03 04:38:40;;;;;;;6.50;1.67;;;10.70;82.50;;;;;;5026610;28;20477;-73
2022/01/03 04:41:09;;;;;;;7.53;1.57;;;10.70;82.50;;;;;;5023514;28;20458;-72
2022/01/03 04:43:37;;;;;;;6.40;1.50;;;10.70;82.40;;;;;;5026271;28;20547;-73
2022/01/03 04:46:05;;;;;;;7.20;1.40;;;10.70;82.40;;;;;;5035749;28;20515;-72
2022/01/03 04:48:33;;;;;;;9.87;1.50;;;10.60;82.50;;;;;;5016648;28;21069;-72
2022/01/03 04:51:02;;;;;;;8.97;1.83;;;10.60;82.60;;;;;;5023639;28;20462;-73
2022/01/03 04:53:33;;;;;;;11.37;1.93;;;10.60;82.70;;;;;;5021829;28;20895;-72
2022/01/03 04:56:01;;;;;;;7.40;1.87;;;10.60;82.70;;;;;;5017130;28;20460;-72
2022/01/03 04:58:29;;;;;;;6.63;1.60;;;10.70;82.70;;;;;;5022081;28;20698;-73
2022/01/03 05:00:58;;;;;;;6.70;1.63;;;10.70;82.80;;;;;;5035280;28;20479;-73
2022/01/03 05:03:26;;;;;;;7.03;1.80;;;10.60;82.80;;;;;;5025303;28;20470;-73
2022/01/03 05:05:54;;;;;;;11.00;2.33;;;10.70;82.80;;;;;;5036053;28;20456;-72
2022/01/03 05:08:22;;;;;;;8.90;1.73;;;10.70;82.80;;;;;;5025557;28;20480;-72
2022/01/03 05:10:54;;;;;;;7.83;1.60;;;10.70;82.80;;;;;;5020807;28;20451;-73
2022/01/03 05:13:22;;;;;;;5.23;1.50;;;10.70;82.80;;;;;;5021563;28;20464;-73
2022/01/03 05:15:50;;;;;;;7.00;1.80;;;10.70;82.90;;;;;;5015336;28;20469;-72
2022/01/03 05:18:18;;;;;;;8.47;1.80;;;10.70;82.80;;;;;;5021975;28;20486;-72
2022/01/03 05:20:47;;;;;;;6.30;1.90;;;10.70;82.90;;;;;;5016172;28;20523;-72
2022/01/03 05:23:15;;;;;;;8.93;1.97;;;10.70;82.90;;;;;;5037672;28;20466;-72
2022/01/03 05:25:43;;;;;;;7.43;1.60;;;10.80;82.90;;;;;;5022085;28;20841;-72
2022/01/03 05:28:12;;;;;;;11.10;1.80;;;10.80;82.90;;;;;;5022510;28;20527;-72
2022/01/03 05:30:41;;;;;;;6.20;1.77;;;10.80;82.80;;;;;;5032579;28;20476;-72
2022/01/03 05:33:10;;;;;;;7.60;1.60;;;10.80;82.90;;;;;;5032633;28;20543;-72
2022/01/03 05:35:38;;;;;;;8.60;2.33;;;10.90;82.90;;;;;;5014080;28;20486;-72
2022/01/03 05:38:07;;;;;;;4.17;1.43;;;10.90;82.90;;;;;;5024905;28;20530;-72
2022/01/03 05:40:35;;;;;;;8.80;1.70;;;10.90;82.80;;;;;;5019945;28;20535;-72
2022/01/03 05:43:03;;;;;;;6.63;2.20;;;10.90;82.80;;;;;;5020161;28;20514;-72
2022/01/03 05:45:34;;;;;;;5.23;1.50;;;10.90;82.80;;;;;;5020190;28;20898;-72
2022/01/03 05:48:02;;;;;;;6.37;1.87;;;10.90;82.90;;;;;;5020378;28;20499;-72
2022/01/03 05:50:31;;;;;;;6.27;2.00;;;10.90;82.90;;;;;;5020139;28;20864;-72
2022/01/03 05:52:59;;;;;;;8.13;2.00;;;10.90;82.90;;;;;;5024395;28;20460;-72
2022/01/03 05:55:28;;;;;;;5.63;1.50;;;10.90;82.90;;;;;;5032966;28;20461;-72
2022/01/03 05:57:56;;;;;;;8.60;1.10;;;10.90;82.80;;;;;;5026540;28;20457;-72
2022/01/03 06:00:29;;;;;;;5.23;1.20;;;10.90;82.90;;;;;;5018670;28;20526;-72
2022/01/03 06:02:58;;;;;;;4.43;0.93;;;10.90;83.00;;;;;;5018790;28;20518;-72
2022/01/03 06:05:42;;;;;;;4.60;1.20;;;10.80;83.00;;;;;;5016470;28;20471;-72
2022/01/03 06:08:13;;;;;;;6.00;1.10;;;10.80;83.00;;;;;;5018103;28;20472;-72
2022/01/03 06:10:44;;;;;;;2.93;1.00;;;10.80;83.10;;;;;;5019336;28;20453;-72
2022/01/03 06:13:19;;;;;;;4.57;1.20;;;10.80;83.20;;;;;;5020406;28;20479;-72
2022/01/03 06:15:48;;;;;;;4.60;0.90;;;10.80;83.20;;;;;;5025616;28;20560;-72
2022/01/03 06:18:18;;;;;;;4.63;1.17;;;10.80;83.10;;;;;;5019716;28;20561;-73
2022/01/03 06:20:51;;;;;;;7.23;1.60;;;10.90;83.20;;;;;;5025091;28;20567;-72
2022/01/03 06:23:23;;;;;;;4.67;1.20;;;10.90;83.20;;;;;;5021047;28;20455;-72
2022/01/03 06:25:51;;;;;;;4.90;1.13;;;10.90;83.20;;;;;;5019583;28;20939;-72
2022/01/03 06:28:35;;;;;;;3.50;1.27;;;10.90;83.20;;;;;;5022253;28;20583;-72
2022/01/03 06:31:03;;;;;;;5.73;1.57;;;10.90;83.20;;;;;;5019156;28;20460;-72
2022/01/03 06:33:33;;;;;;;8.00;1.80;;;10.90;83.10;;;;;;5023157;28;20460;-72
2022/01/03 06:36:01;;;;;;;6.13;2.00;;;10.90;83.20;;;;;;5023575;28;20973;-72
2022/01/03 06:38:30;;;;;;;12.43;1.97;;;10.90;83.20;;;;;;5020894;28;20475;-72
2022/01/03 06:40:58;;;;;;;6.77;2.00;;;10.90;83.20;;;;;;5018555;28;20468;-72
2022/01/03 06:43:26;;;;;;;5.30;1.57;;;10.90;83.40;;;;;;5020603;28;20813;-72
2022/01/03 06:45:54;;;;;;;8.20;1.73;;;10.90;83.30;;;;;;5017330;28;20985;-72
2022/01/03 06:48:22;;;;;;;8.97;1.70;;;10.90;83.30;;;;;;5014583;28;20595;-72
2022/01/03 06:50:51;;;;;;;4.80;1.60;;;10.90;83.30;;;;;;5013053;28;20460;-72
2022/01/03 06:53:19;;;;;;;5.37;1.50;;;10.90;83.30;;;;;;5019380;28;20871;-72
2022/01/03 06:55:47;;;;;;;11.03;2.10;;;10.80;83.30;;;;;;5018554;28;20467;-73
2022/01/03 06:58:16;;;;;;;6.37;2.00;;;10.80;83.40;;;;;;5023017;28;20469;-73
2022/01/03 07:00:45;;;;;;;5.60;1.67;;;10.80;83.40;;;;;;5020868;28;20894;-73
2022/01/03 07:03:13;;;;;;;6.17;1.73;;;10.80;83.30;;;;;;5016752;28;20452;-73
2022/01/03 07:05:41;;;;;;;5.00;1.80;;;10.80;83.20;;;;;;5018175;28;20459;-73
2022/01/03 07:08:11;;;;;;;3.47;1.00;;;10.70;83.20;;;;;;5022439;28;21363;-72
2022/01/03 07:10:39;;;;;;;6.47;1.20;;;10.70;83.00;;;;;;5023180;28;20545;-72
2022/01/03 07:13:07;;;;;;;3.30;0.60;;;10.60;83.00;;;;;;5018426;28;20452;-72
2022/01/03 07:21:05;;;;;;;5.60;0.90;;;10.40;83.40;;;;;;5020320;28;20456;-72
2022/01/03 07:23:35;;;;;;;5.70;1.00;;;10.40;83.40;;;;;;4997288;28;20483;-72
2022/01/03 07:26:04;;;;;;;4.50;0.90;;;10.40;83.60;;;;;;5035370;28;20451;-71
2022/01/03 07:28:32;;;;;;;5.40;1.03;;;10.30;83.50;;;;;;5023598;28;20545;-72
2022/01/03 07:31:00;;;;;;;3.27;0.90;;;10.30;83.60;;;;;;5015075;28;20480;-72
2022/01/03 07:33:28;;;;;;;3.27;0.83;;;10.40;83.60;;;;;;5018181;28;20469;-72
2022/01/03 07:35:56;;;;;;;4.50;1.00;;;10.30;83.60;;;;;;5022332;28;20468;-72
2022/01/03 07:38:24;;;;;;;3.53;0.80;;;10.30;83.70;;;;;;5024651;28;20505;-72
2022/01/03 07:40:54;;;;;;;4.33;1.00;;;10.40;83.80;;;;;;5018739;28;20444;-72
2022/01/03 07:43:22;;;;;;;8.50;1.30;;;10.40;83.80;;;;;;5016472;28;20463;-72
2022/01/03 07:45:50;;;;;;;3.83;1.10;;;10.40;83.80;;;;;;5021888;28;20472;-72
2022/01/03 07:48:18;;;;;;;7.30;1.67;;;10.40;83.80;;;;;;5024715;28;21003;-72
2022/01/03 07:50:46;;;;;;;6.07;1.07;;;10.40;83.80;;;;;;5024609;28;20483;-73
2022/01/03 07:53:14;;;;;;;9.20;1.60;;;10.40;83.80;;;;;;5023191;28;20499;-72
2022/01/03 07:55:44;;;;;;;9.70;1.77;;;10.40;83.90;;;;;;5022561;28;20550;-72
2022/01/03 07:58:16;;;;;;;9.43;1.50;;;10.50;84.00;;;;;;5020299;28;20455;-73
2022/01/03 08:00:45;;;;;;;4.30;1.20;;;10.50;83.90;;;;;;5017929;28;20525;-74
2022/01/03 08:03:15;;;;;;;9.57;1.77;;;10.50;84.00;;;;;;5017600;28;20451;-72
2022/01/03 08:05:43;;;;;;;9.37;2.23;;;10.60;84.00;;;;;;5017226;28;20449;-73
2022/01/03 08:08:15;;;;;;;5.73;1.40;;;10.60;83.90;;;;;;5023202;28;20734;-72
2022/01/03 08:10:45;;;;;;;6.97;2.20;;;10.60;83.90;;;;;;5021539;28;20476;-72
2022/01/03 08:13:14;;;;;;;11.33;2.50;;;10.60;84.00;;;;;;5018920;28;20464;-74
2022/01/03 08:15:43;;;;;;;10.83;2.80;;;10.60;83.90;;;;;;5015283;28;20880;-72
2022/01/03 08:18:12;;;;;;;6.30;2.20;;;10.60;83.90;;;;;;5017832;28;20509;-72
2022/01/03 08:20:41;;;;;;;10.23;2.67;;;10.70;84.00;;;;;;5020778;28;20467;-73
2022/01/03 08:23:08;;;;;;;7.83;2.13;;;10.70;84.00;;;;;;5018965;28;20464;-72
2022/01/03 08:25:37;;;;;;;9.57;2.13;;;10.70;84.00;;;;;;5021875;28;20448;-72
2022/01/03 08:28:06;;;;;;;7.93;2.60;;;10.80;84.00;;;;;;5018979;28;20518;-74
2022/01/03 08:30:37;;;;;;;10.70;2.50;;;10.80;83.90;;;;;;5015476;28;20483;-73
2022/01/03 08:33:05;;;;;;;13.67;3.37;;;10.80;84.00;;;;;;5018619;28;20451;-72
2022/01/03 08:35:33;;;;;;;11.07;2.40;;;10.80;83.90;;;;;;5020369;28;20496;-74
2022/01/03 08:38:04;;;;;;;10.43;3.13;;;10.80;84.00;;;;;;5018689;28;20483;-73
2022/01/03 08:40:32;;;;;;;10.00;2.53;;;10.80;83.90;;;;;;5017931;28;20484;-73
2022/01/03 08:43:01;;;;;;;14.17;2.40;;;10.80;83.90;;;;;;5034652;28;20455;-73
2022/01/03 08:45:29;;;;;;;10.70;3.00;;;10.80;83.90;;;;;;5017895;28;21150;-73
2022/01/03 08:47:59;;;;;;;8.93;2.30;;;10.80;83.90;;;;;;5020216;28;20513;-73
2022/01/03 08:50:27;;;;;;;8.17;2.50;;;10.80;83.90;;;;;;5019143;28;20478;-73
2022/01/03 08:52:55;;;;;;;12.13;2.53;;;10.80;84.00;;;;;;5020165;28;20516;-73
2022/01/03 08:55:23;;;;;;;10.43;2.90;;;10.80;83.90;;;;;;5022448;28;20458;-73
2022/01/03 08:57:51;;;;;;;10.80;3.10;;;10.80;83.80;;;;;;5017090;28;20471;-73
2022/01/03 09:00:20;;;;;;;14.40;2.73;;;10.80;83.90;;;;;;5023300;28;21214;-73
2022/01/03 09:02:48;;;;;;;9.67;2.10;;;10.80;83.90;;;;;;5023145;28;20498;-73
2022/01/03 09:05:17;;;;;;;7.50;2.00;;;10.80;83.90;;;;;;5021136;28;21177;-73
2022/01/03 09:07:45;;;;;;;6.73;2.77;;;10.80;83.70;;;;;;5019003;28;20866;-73
2022/01/03 09:10:13;;;;;;;11.03;2.23;;;10.70;83.50;;;;;;5019045;28;20476;-74
2022/01/03 09:12:41;;;;;;;9.97;2.50;;;10.70;83.80;;;;;;5019175;28;20460;-74
2022/01/03 09:15:09;;;;;;;12.37;2.30;;;10.70;83.90;;;;;;5020682;28;20483;-73
2022/01/03 09:17:37;;;;;;;8.10;2.10;;;10.70;83.90;;;;;;5018852;28;20460;-73
2022/01/03 09:20:07;;;;;;;8.83;2.70;;;10.70;84.00;;;;;;5019878;28;20472;-74
2022/01/03 09:22:41;;;;;;;9.00;2.17;;;10.80;84.00;;;;;;5018579;28;20463;-74
2022/01/03 09:30:40;;;;;;;8.97;2.10;;;10.80;84.00;;;;;;5022448;28;20472;-73
2022/01/03 09:33:08;;;;;;;8.07;1.93;;;10.80;84.10;;;;;;5019104;28;20549;-73
2022/01/03 09:35:37;;;;;;;12.70;2.47;;;10.80;84.10;;;;;;5018871;28;20839;-74
2022/01/03 09:38:06;;;;;;;11.40;3.10;;;10.90;84.00;;;;;;5018975;28;20469;-73
2022/01/03 09:40:36;;;;;;;8.70;1.90;;;10.90;83.90;;;;;;5016997;28;20460;-73
2022/01/03 09:43:04;;;;;;;11.60;2.70;;;10.90;84.00;;;;;;5023195;28;20475;-73
2022/01/03 09:45:33;;;;;;;8.90;2.50;;;10.90;84.00;;;;;;5020207;28;20464;-73
2022/01/03 09:48:03;;;;;;;12.40;3.27;;;10.90;84.00;;;;;;5016826;28;20454;-73
2022/01/03 09:50:33;;;;;;;16.83;3.20;;;10.90;84.00;;;;;;5020533;28;20562;-73
2022/01/03 09:53:03;;;;;;;9.30;2.47;;;10.90;84.10;;;;;;5024493;28;20952;-73
2022/01/03 09:55:33;;;;;;;10.07;2.40;;;11.00;84.00;;;;;;5026263;28;20861;-74
2022/01/03 09:58:01;;;;;;;18.43;2.47;;;11.00;84.00;;;;;;5025125;28;20469;-74
2022/01/03 10:00:29;;;;;;;7.97;2.57;;;11.00;84.00;;;;;;5020755;28;20477;-74
2022/01/03 10:02:58;;;;;;;10.13;2.73;;;11.00;83.90;;;;;;5022663;28;20512;-74
2022/01/03 10:05:26;;;;;;;13.13;2.70;;;11.00;84.00;;;;;;5022542;28;20470;-71
2022/01/03 10:07:54;;;;;;;7.57;2.33;;;11.00;84.00;;;;;;5022198;28;20485;-72
2022/01/03 10:10:22;;;;;;;10.03;2.27;;;11.00;83.90;;;;;;5023860;28;20502;-72
2022/01/03 10:12:52;;;;;;;7.23;2.17;;;10.90;83.90;;;;;;5024402;28;20502;-71
2022/01/03 10:15:20;;;;;;;12.43;2.60;;;10.90;84.00;;;;;;5023188;28;20461;-72
2022/01/03 10:17:48;;;;;;;10.73;2.23;;;10.90;84.00;;;;;;5022376;28;20456;-73
2022/01/03 10:20:17;;;;;;;10.27;2.60;;;10.90;84.00;;;;;;5021285;28;20484;-73
2022/01/03 10:22:45;;;;;;;5.70;1.80;;;10.90;84.10;;;;;;5019616;28;20452;-72
2022/01/03 10:25:18;;;;;;;10.30;2.30;;;10.80;84.10;;;;;;5025048;28;20454;-71
2022/01/03 10:27:53;;;;;;;7.90;1.93;;;10.80;84.40;;;;;;5020184;28;20536;-71
2022/01/03 10:30:31;;;;;;;9.10;2.40;;;10.80;84.40;;;;;;5026082;28;20614;-72
2022/01/03 10:33:00;;;;;;;6.33;2.27;;;10.80;84.50;;;;;;5019349;28;20458;-71
2022/01/03 10:35:28;;;;;;;9.17;2.43;;;10.80;84.60;;;;;;5018947;28;20988;-71
2022/01/03 10:37:56;;;;;;;6.40;2.07;;;10.80;84.70;;;;;;5021419;28;20522;-71
2022/01/03 10:40:28;;;;;;;6.40;1.90;;;10.80;84.60;;;;;;5026451;28;20496;-73
2022/01/03 10:42:58;;;;;;;4.00;1.77;;;10.90;84.80;;;;;;5025421;28;20468;-71
2022/01/03 10:45:32;;;;;;;7.10;2.13;;;10.90;85.10;;;;;;5026147;28;20463;-71
2022/01/03 10:48:01;;;;;;;7.73;1.87;;;11.00;85.10;;;;;;5021915;28;20460;-72
2022/01/03 10:50:30;;;;;;;17.47;11.00;;;11.10;85.20;;;;;;5020546;28;20484;-72
2022/01/03 10:53:05;;;;;;;18.17;3.93;;;11.10;85.00;;;;;;5035702;28;20490;-71
2022/01/03 10:55:34;;;;;;;12.77;2.27;;;11.10;85.10;;;;;;5021636;28;20461;-73
2022/01/03 10:58:05;;;;;;;12.50;2.70;;;11.10;85.10;;;;;;5014525;28;20452;-72
2022/01/03 11:00:36;;;;;;;9.93;2.80;;;11.20;85.10;;;;;;5018600;28;20477;-72
2022/01/03 11:03:18;;;;;;;12.50;2.00;;;11.20;85.20;;;;;;5015371;28;20540;-72
2022/01/03 11:05:50;;;;;;;10.40;2.93;;;11.10;85.30;;;;;;5017008;28;21048;-72
2022/01/03 11:11:08;;;;;;;12.60;2.40;;;11.20;85.30;;;;;;5022320;28;20490;-72
2022/01/03 11:13:40;;;;;;;10.10;1.97;;;11.20;85.40;;;;;;5013518;28;20461;-72
2022/01/03 11:16:09;;;;;;;9.37;2.93;;;11.20;85.30;;;;;;5014739;28;20489;-72
2022/01/03 11:18:39;;;;;;;12.63;2.87;;;11.20;85.30;;;;;;5016754;28;20480;-72
2022/01/03 11:21:12;;;;;;;9.17;2.80;;;11.20;85.30;;;;;;5017450;28;20460;-72
2022/01/03 11:23:41;;;;;;;14.60;2.70;;;11.20;85.30;;;;;;5020742;28;20457;-72
2022/01/03 11:26:12;;;;;;;9.10;2.63;;;11.20;85.20;;;;;;5022270;28;20442;-72
2022/01/03 11:28:43;;;;;;;8.10;2.47;;;11.30;85.20;;;;;;5020730;28;20992;-72
2022/01/03 11:31:13;;;;;;;9.13;2.30;;;11.30;85.20;;;;;;5016298;28;20487;-71
2022/01/03 11:33:41;;;;;;;14.80;2.60;;;11.30;85.20;;;;;;5014828;28;20449;-71
2022/01/03 11:36:30;;;;;;;8.90;3.67;;;11.30;85.20;;;;;;5017982;28;20521;-71
2022/01/03 11:39:04;;;;;;;11.17;3.00;;;11.30;85.20;;;;;;5016595;28;20499;-72
2022/01/03 11:41:33;;;;;;;9.77;3.00;;;11.30;85.20;;;;;;5019347;28;20456;-73
2022/01/03 11:44:03;;;;;;;15.07;3.07;;;11.40;85.00;;;;;;5017505;28;20471;-72
2022/01/03 11:46:31;;;;;;;13.80;2.53;;;11.40;85.00;;;;;;5012498;28;20475;-73
2022/01/03 11:48:59;;;;;;;9.00;2.83;;;11.40;85.20;;;;;;5019282;28;20918;-71
2022/01/03 11:51:32;;;;;;;9.87;2.30;;;11.40;85.20;;;;;;5017947;28;20869;-71
2022/01/03 11:54:09;;;;;;;6.80;2.33;;;11.40;85.00;;;;;;5014588;28;20468;-73
2022/01/03 11:56:42;;;;;;;7.10;2.23;;;11.40;85.20;;;;;;5018913;28;20451;-72
2022/01/03 11:59:34;;;;;;;10.23;2.47;;;11.40;85.20;;;;;;5016560;28;20468;-72
2022/01/03 12:05:08;;;;;;;14.30;2.83;;;11.50;84.90;;;;;;5017681;28;21102;-72
2022/01/03 12:07:54;;;;;;;9.07;2.30;;;11.50;84.90;;;;;;5016062;28;20453;-72
2022/01/03 12:10:22;;;;;;;10.27;2.30;;;11.50;84.80;;;;;;5016141;28;20537;-72
2022/01/03 12:12:59;;;;;;;8.63;2.53;;;11.50;84.90;;;;;;5016268;28;20479;-72
2022/01/03 12:15:35;;;;;;;8.53;2.40;;;11.50;84.90;;;;;;5017442;28;21563;-72
2022/01/03 12:18:03;;;;;;;7.43;2.20;;;11.50;84.90;;;;;;5017455;28;20544;-72
2022/01/03 12:20:43;;;;;;;9.57;2.43;;;11.50;84.70;;;;;;5012890;28;20469;-72
2022/01/03 12:23:31;;;;;;;9.53;3.00;;;11.50;84.80;;;;;;5015780;28;20472;-71
2022/01/03 12:26:09;;;;;;;11.80;2.57;;;11.50;84.80;;;;;;5017055;28;20507;-71
2022/01/03 12:29:06;;;;;;;13.37;2.60;;;11.50;84.90;;;;;;5020207;28;21035;-71
2022/01/03 12:32:13;;;;;;;11.00;3.40;;;11.50;84.90;;;;;;5037492;28;20495;-71
2022/01/03 12:34:41;;;;;;;16.47;2.70;;;11.50;85.00;;;;;;5016366;28;20453;-72
2022/01/03 12:37:17;;;;;;;9.03;2.10;;;11.50;85.00;;;;;;5034604;28;20904;-72
2022/01/03 12:40:10;;;;;;;10.20;2.37;;;11.60;84.90;;;;;;5022748;28;20541;-72
2022/01/03 12:42:56;;;;;;;12.97;2.67;;;11.60;84.90;;;;;;5023700;28;20945;-73
2022/01/03 12:45:53;;;;;;;6.67;1.80;;;11.60;84.90;;;;;;5021690;28;20509;-72
2022/01/03 12:48:25;;;;;;;13.53;2.60;;;11.60;84.90;;;;;;5022486;28;20576;-73
2022/01/03 12:51:09;;;;;;;10.90;2.33;;;11.70;84.90;;;;;;5020124;28;20469;-72
2022/01/03 12:53:56;;;;;;;10.43;2.17;;;11.70;84.90;;;;;;5020571;28;20478;-73
2022/01/03 12:56:32;;;;;;;11.93;2.47;;;11.70;84.80;;;;;;5034654;28;20468;-73
2022/01/03 12:59:11;;;;;;;11.23;2.60;;;11.70;84.70;;;;;;5020754;28;20477;-72
2022/01/03 13:01:39;;;;;;;16.40;2.43;;;11.70;84.60;;;;;;5021646;28;20503;-72
2022/01/03 13:04:23;;;;;;;13.20;2.53;;;11.80;84.60;;;;;;5022056;28;20528;-72
2022/01/03 13:06:51;;;;;;;9.60;2.93;;;11.80;84.50;;;;;;5019836;28;20454;-73
2022/01/03 13:09:19;;;;;;;7.43;2.47;;;11.80;84.60;;;;;;5024288;28;20484;-72
2022/01/03 13:11:50;;;;;;;9.07;2.20;;;11.80;84.50;;;;;;5021759;28;20462;-73
2022/01/03 13:14:20;;;;;;;14.10;2.60;;;11.80;84.60;;;;;;5023658;28;20463;-74
2022/01/03 13:16:51;;;;;;;8.73;2.83;;;11.80;84.50;;;;;;5020068;28;20527;-74
2022/01/03 13:19:25;;;;;;;14.53;2.70;;;11.80;84.50;;;;;;5019519;28;20487;-73
2022/01/03 13:21:58;;;;;;;11.80;2.33;;;11.80;84.50;;;;;;5022784;28;20462;-74